createdAt,value
2019-02-27T00:00:11.441Z,11.93
2019-02-27T00:02:40.365Z,13.30
2019-02-27T00:05:09.045Z,15.07
2019-02-27T00:07:37.493Z,13.83
2019-02-27T00:10:07.251Z,14.00
2019-02-27T00:12:35.708Z,12.73
2019-02-27T00:15:04.936Z,12.23
2019-02-27T00:17:34.499Z,12.00
2019-02-27T00:20:05.011Z,11.47
2019-02-27T00:22:33.816Z,11.23
2019-02-27T00:25:03.431Z,10.93
2019-02-27T00:27:32.365Z,11.30
2019-02-27T00:30:04.627Z,10.67
2019-02-27T00:32:31.018Z,12.20
2019-02-27T00:34:59.321Z,11.07
2019-02-27T00:37:27.727Z,10.50
2019-02-27T00:39:56.170Z,11.00
2019-02-27T00:42:33.267Z,10.90
2019-02-27T00:44:54.871Z,11.07
2019-02-27T00:47:23.270Z,9.47
2019-02-27T00:49:51.626Z,9.23
2019-02-27T00:52:20.111Z,10.50
2019-02-27T00:54:50.360Z,9.73
2019-02-27T00:57:20.889Z,10.73
2019-02-27T00:59:48.886Z,10.53
2019-02-27T01:02:19.911Z,10.13
2019-02-27T01:04:47.347Z,10.13
2019-02-27T01:07:20.240Z,9.80
2019-02-27T01:09:47.142Z,9.20
2019-02-27T01:12:15.448Z,10.67
2019-02-27T01:14:43.752Z,9.80
2019-02-27T01:17:12.109Z,9.90
2019-02-27T01:19:42.697Z,9.80
2019-02-27T01:22:10.721Z,10.77
2019-02-27T01:24:39.063Z,10.00
2019-02-27T01:27:07.352Z,10.50
2019-02-27T01:29:36.019Z,10.47
2019-02-27T01:32:04.385Z,11.33
2019-02-27T01:34:32.831Z,13.73
2019-02-27T01:37:01.181Z,10.57
2019-02-27T01:39:29.579Z,13.00
2019-02-27T01:41:58.535Z,9.77
2019-02-27T01:44:27.124Z,10.30
2019-02-27T01:46:55.483Z,10.50
2019-02-27T01:49:24.959Z,10.77
2019-02-27T01:51:53.579Z,11.37
2019-02-27T01:54:21.911Z,12.57
2019-02-27T01:56:50.189Z,12.20
2019-02-27T01:59:18.777Z,13.07
2019-02-27T02:01:47.151Z,13.13
2019-02-27T02:04:20.001Z,12.10
2019-02-27T02:06:45.559Z,12.60
2019-02-27T02:09:30.804Z,12.90
2019-02-27T02:12:01.112Z,12.37
2019-02-27T02:14:38.351Z,11.70
2019-02-27T02:17:09.956Z,12.57
2019-02-27T02:19:56.741Z,11.10
2019-02-27T02:22:41.305Z,11.10
2019-02-27T02:25:21.729Z,10.57
2019-02-27T02:28:19.160Z,11.30
2019-02-27T02:31:04.942Z,11.20
2019-02-27T02:33:36.362Z,10.63
2019-02-27T02:36:32.948Z,10.23
2019-02-27T02:39:24.214Z,10.43
2019-02-27T02:42:13.770Z,11.33
2019-02-27T02:45:04.601Z,10.17
2019-02-27T02:48:04.740Z,10.67
2019-02-27T02:50:54.270Z,9.73
2019-02-27T02:54:02.060Z,9.83
2019-02-27T02:56:36.205Z,10.33
2019-02-27T02:59:36.744Z,9.70
2019-02-27T03:02:08.284Z,10.27
2019-02-27T03:04:48.243Z,10.43
2019-02-27T03:07:22.436Z,12.27
2019-02-27T03:10:10.795Z,10.33
2019-02-27T03:13:07.120Z,11.83
2019-02-27T03:15:52.625Z,12.93
2019-02-27T03:18:45.537Z,12.57
2019-02-27T03:21:35.206Z,12.33
2019-02-27T03:24:27.943Z,11.87
2019-02-27T03:27:02.600Z,12.40
2019-02-27T03:30:05.911Z,12.00
2019-02-27T03:32:49.198Z,12.07
2019-02-27T03:35:42.145Z,12.07
2019-02-27T03:38:36.360Z,11.37
2019-02-27T03:41:23.640Z,10.37
2019-02-27T03:44:10.397Z,12.20
2019-02-27T03:46:51.040Z,11.07
2019-02-27T03:49:55.922Z,10.87
2019-02-27T03:52:37.347Z,11.20
2019-02-27T03:55:20.795Z,12.40
2019-02-27T03:58:04.705Z,10.80
2019-02-27T04:00:44.199Z,10.33
2019-02-27T04:03:44.995Z,11.10
2019-02-27T04:06:25.633Z,11.00
2019-02-27T04:08:57.773Z,12.30
2019-02-27T04:11:26.326Z,12.17
2019-02-27T04:13:54.799Z,12.47
2019-02-27T04:16:28.866Z,13.07
2019-02-27T04:18:53.150Z,12.10
2019-02-27T04:21:25.027Z,12.63
2019-02-27T04:23:51.842Z,13.27
2019-02-27T04:26:20.343Z,11.33
2019-02-27T04:28:48.645Z,12.77
2019-02-27T04:31:16.971Z,13.17
2019-02-27T04:33:45.503Z,13.03
2019-02-27T04:36:14.068Z,13.07
2019-02-27T04:38:42.796Z,13.70
2019-02-27T04:41:11.239Z,15.90
2019-02-27T04:43:39.607Z,21.00
2019-02-27T04:46:07.900Z,16.33
2019-02-27T04:48:36.227Z,14.10
2019-02-27T04:51:04.616Z,13.60
2019-02-27T04:53:32.985Z,13.40
2019-02-27T04:56:01.367Z,12.67
2019-02-27T04:58:31.299Z,12.10
2019-02-27T05:01:01.059Z,14.37
2019-02-27T05:03:29.396Z,12.37
2019-02-27T05:05:59.464Z,12.37
2019-02-27T05:08:27.835Z,13.40
2019-02-27T05:10:56.136Z,13.53
2019-02-27T05:13:24.457Z,12.07
2019-02-27T05:15:52.832Z,12.20
2019-02-27T05:18:21.189Z,12.03
2019-02-27T05:20:49.462Z,12.50
2019-02-27T05:23:19.539Z,12.73
2019-02-27T05:25:47.923Z,12.37
2019-02-27T05:28:16.259Z,13.43
2019-02-27T05:30:45.233Z,13.33
2019-02-27T05:33:14.263Z,12.27
2019-02-27T05:35:42.646Z,13.20
2019-02-27T05:38:11.114Z,11.80
2019-02-27T05:40:39.479Z,13.53
2019-02-27T05:43:07.810Z,12.60
2019-02-27T05:45:36.134Z,13.53
2019-02-27T05:48:04.478Z,11.70
2019-02-27T05:50:34.340Z,11.73
2019-02-27T05:53:02.917Z,13.00
2019-02-27T05:55:31.406Z,12.40
2019-02-27T05:57:59.767Z,13.10
2019-02-27T06:00:28.169Z,13.23
2019-02-27T06:02:56.940Z,13.73
2019-02-27T06:05:25.479Z,14.07
2019-02-27T06:07:53.844Z,15.20
2019-02-27T06:10:23.614Z,14.50
2019-02-27T06:12:52.028Z,15.23
2019-02-27T06:15:20.468Z,14.20
2019-02-27T06:17:49.730Z,14.47
2019-02-27T06:20:18.171Z,14.83
2019-02-27T06:22:46.546Z,14.43
2019-02-27T06:25:21.912Z,13.90
2019-02-27T06:27:47.597Z,12.70
2019-02-27T06:30:18.641Z,13.67
2019-02-27T06:32:47.360Z,12.23
2019-02-27T06:35:16.121Z,13.60
2019-02-27T06:37:44.666Z,13.10
2019-02-27T06:40:18.385Z,15.50
2019-02-27T06:42:47.124Z,14.10
2019-02-27T06:45:18.500Z,14.20
2019-02-27T06:47:46.798Z,13.93
2019-02-27T06:50:16.273Z,13.77
2019-02-27T06:52:44.755Z,17.57
2019-02-27T06:55:14.583Z,14.73
2019-02-27T06:57:42.973Z,13.70
2019-02-27T07:00:16.569Z,12.90
2019-02-27T07:02:44.975Z,13.43
2019-02-27T07:05:14.099Z,11.60
2019-02-27T07:07:42.623Z,16.13
2019-02-27T07:10:19.409Z,13.60
2019-02-27T07:12:45.909Z,13.37
2019-02-27T07:15:21.602Z,12.87
2019-02-27T07:17:50.012Z,14.17
2019-02-27T07:20:18.455Z,15.40
2019-02-27T07:22:47.087Z,13.57
2019-02-27T07:25:17.666Z,13.70
2019-02-27T07:27:46.094Z,13.40
2019-02-27T07:30:18.511Z,14.77
2019-02-27T07:32:46.946Z,13.37
2019-02-27T07:35:16.479Z,14.93
2019-02-27T07:37:48.006Z,14.50
2019-02-27T07:40:16.990Z,14.10
2019-02-27T07:42:45.902Z,14.00
2019-02-27T07:45:22.823Z,16.10
2019-02-27T07:47:51.368Z,14.30
2019-02-27T07:50:20.734Z,13.73
2019-02-27T07:52:49.130Z,13.30
2019-02-27T07:55:21.797Z,13.80
2019-02-27T07:57:48.326Z,13.47
2019-02-27T08:00:19.776Z,14.53
2019-02-27T08:02:48.085Z,14.33
2019-02-27T08:05:16.505Z,13.40
2019-02-27T08:07:48.811Z,13.03
2019-02-27T08:10:22.327Z,13.93
2019-02-27T08:12:55.598Z,12.73
2019-02-27T08:15:20.986Z,14.50
2019-02-27T08:17:49.415Z,12.23
2019-02-27T08:20:21.080Z,12.70
2019-02-27T08:22:49.717Z,12.63
2019-02-27T08:25:19.748Z,13.17
2019-02-27T08:27:48.140Z,13.80
2019-02-27T08:30:22.548Z,13.23
2019-02-27T08:32:50.930Z,13.13
2019-02-27T08:35:19.615Z,13.97
2019-02-27T08:37:47.918Z,12.30
2019-02-27T08:40:16.281Z,12.20
2019-02-27T08:42:44.665Z,12.73
2019-02-27T08:45:20.010Z,11.77
2019-02-27T08:47:47.986Z,12.83
2019-02-27T08:50:21.462Z,12.27
2019-02-27T08:52:51.540Z,12.27
2019-02-27T08:55:22.548Z,13.27
2019-02-27T08:57:55.796Z,13.03
2019-02-27T09:00:26.109Z,12.53
2019-02-27T09:02:55.727Z,12.47
2019-02-27T09:05:24.251Z,11.70
2019-02-27T09:07:52.664Z,12.23
2019-02-27T09:10:23.177Z,12.53
2019-02-27T09:12:52.656Z,12.70
2019-02-27T09:15:21.186Z,12.00
2019-02-27T09:17:49.867Z,11.20
2019-02-27T09:20:22.749Z,12.40
2019-02-27T09:22:51.172Z,12.27
2019-02-27T09:25:23.626Z,12.37
2019-02-27T09:27:49.633Z,12.40
2019-02-27T09:30:20.672Z,12.50
2019-02-27T09:32:49.003Z,12.13
2019-02-27T09:35:17.524Z,11.93
2019-02-27T09:37:48.366Z,13.00
2019-02-27T09:40:23.902Z,12.83
2019-02-27T09:42:53.047Z,12.10
2019-02-27T09:45:27.336Z,13.23
2019-02-27T09:47:59.277Z,12.33
2019-02-27T09:50:40.282Z,13.20
2019-02-27T09:53:08.794Z,13.20
2019-02-27T09:55:37.177Z,12.30
2019-02-27T09:58:10.379Z,13.43
2019-02-27T10:00:41.679Z,11.80
2019-02-27T10:03:10.271Z,11.73
2019-02-27T10:05:40.727Z,12.53
2019-02-27T10:08:09.455Z,12.10
2019-02-27T10:10:37.770Z,11.80
2019-02-27T10:13:06.243Z,11.67
2019-02-27T10:15:34.756Z,11.40
2019-02-27T10:18:03.262Z,12.30
2019-02-27T10:20:31.627Z,11.23
2019-02-27T10:22:59.962Z,11.77
2019-02-27T10:25:28.699Z,12.13
2019-02-27T10:27:57.106Z,11.50
2019-02-27T10:30:25.669Z,12.00
2019-02-27T10:32:54.104Z,11.57
2019-02-27T10:35:23.052Z,10.67
2019-02-27T10:37:54.371Z,11.63
2019-02-27T10:40:26.188Z,11.00
2019-02-27T10:42:54.810Z,10.33
2019-02-27T10:45:23.196Z,10.50
2019-02-27T10:47:51.523Z,10.50
2019-02-27T10:50:19.888Z,10.70
2019-02-27T10:52:50.008Z,10.67
2019-02-27T10:55:27.085Z,9.97
2019-02-27T10:57:55.702Z,10.57
2019-02-27T11:00:35.181Z,11.00
2019-02-27T11:03:03.808Z,9.50
2019-02-27T11:05:39.670Z,9.30
2019-02-27T11:08:08.048Z,10.40
2019-02-27T11:10:36.564Z,10.97
2019-02-27T11:13:06.734Z,10.60
2019-02-27T11:15:35.168Z,9.87
2019-02-27T11:18:05.503Z,10.03
2019-02-27T11:20:33.981Z,9.53
2019-02-27T11:23:06.417Z,10.00
2019-02-27T11:25:32.726Z,8.73
2019-02-27T11:28:01.167Z,8.83
2019-02-27T11:30:40.682Z,8.80
2019-02-27T11:33:09.406Z,9.17
2019-02-27T11:35:37.743Z,8.37
2019-02-27T11:38:06.220Z,9.23
2019-02-27T11:40:34.840Z,10.57
2019-02-27T11:43:06.710Z,9.80
2019-02-27T11:45:33.318Z,9.70
2019-02-27T11:48:01.654Z,9.90
2019-02-27T11:50:30.020Z,10.50
2019-02-27T11:53:01.764Z,10.20
2019-02-27T11:55:28.484Z,9.40
2019-02-27T11:57:56.813Z,10.00
2019-02-27T12:00:31.284Z,10.30
2019-02-27T12:02:59.812Z,9.47
2019-02-27T12:05:33.718Z,8.80
2019-02-27T12:07:58.958Z,7.97
2019-02-27T12:10:29.738Z,8.20
2019-02-27T12:13:00.807Z,6.90
2019-02-27T12:15:28.200Z,5.90
2019-02-27T12:17:59.696Z,7.27
2019-02-27T12:20:26.749Z,8.10
2019-02-27T12:22:55.219Z,7.60
2019-02-27T12:25:26.912Z,6.60
2019-02-27T12:27:56.897Z,5.93
2019-02-27T12:30:27.030Z,6.43
2019-02-27T12:32:56.608Z,6.30
2019-02-27T12:35:27.579Z,5.53
2019-02-27T12:37:56.036Z,4.47
2019-02-27T12:40:25.235Z,3.83
2019-02-27T12:42:53.833Z,4.27
2019-02-27T12:45:29.853Z,3.63
2019-02-27T12:47:58.645Z,3.67
2019-02-27T12:50:31.037Z,3.50
2019-02-27T12:52:58.524Z,4.20
2019-02-27T12:55:28.339Z,3.57
2019-02-27T12:57:56.635Z,3.77
2019-02-27T13:00:29.718Z,4.60
2019-02-27T13:02:59.175Z,3.90
2019-02-27T13:05:27.946Z,3.20
2019-02-27T13:07:56.384Z,3.03
2019-02-27T13:10:26.157Z,3.30
2019-02-27T13:12:54.516Z,2.83
2019-02-27T13:15:25.052Z,3.60
2019-02-27T13:17:57.587Z,3.60
2019-02-27T13:20:34.299Z,4.07
2019-02-27T13:23:05.048Z,4.43
2019-02-27T13:25:32.765Z,4.37
2019-02-27T13:28:01.067Z,3.93
2019-02-27T13:30:29.647Z,3.60
2019-02-27T13:33:00.606Z,3.70
2019-02-27T13:35:29.077Z,3.47
2019-02-27T13:37:57.645Z,3.13
2019-02-27T13:40:28.444Z,4.00
2019-02-27T13:42:56.949Z,3.40
2019-02-27T13:45:27.762Z,3.60
2019-02-27T13:47:56.117Z,3.23
2019-02-27T13:50:26.780Z,4.20
2019-02-27T13:52:58.578Z,3.50
2019-02-27T13:55:26.951Z,3.20
2019-02-27T13:57:58.798Z,3.23
2019-02-27T14:00:36.722Z,3.40
2019-02-27T14:03:05.193Z,4.20
2019-02-27T14:05:40.715Z,3.50
2019-02-27T14:08:09.031Z,3.80
2019-02-27T14:10:37.491Z,3.97
2019-02-27T14:13:08.609Z,4.80
2019-02-27T14:15:36.245Z,4.90
2019-02-27T14:18:04.621Z,5.03
2019-02-27T14:20:36.485Z,4.00
2019-02-27T14:23:04.965Z,4.43
2019-02-27T14:25:33.980Z,3.93
2019-02-27T14:28:02.464Z,4.47
2019-02-27T14:30:39.490Z,5.70
2019-02-27T14:33:07.939Z,6.07
2019-02-27T14:35:36.693Z,6.13
2019-02-27T14:38:05.351Z,6.00
2019-02-27T14:40:37.687Z,6.20
2019-02-27T14:43:04.015Z,5.93
2019-02-27T14:45:32.380Z,5.57
2019-02-27T14:48:00.708Z,6.30
2019-02-27T14:50:33.498Z,6.10
2019-02-27T14:52:59.951Z,7.17
2019-02-27T14:55:28.385Z,7.30
2019-02-27T14:57:56.879Z,6.43
2019-02-27T15:00:27.304Z,6.30
2019-02-27T15:02:56.520Z,6.37
2019-02-27T15:05:24.870Z,7.13
2019-02-27T15:07:54.653Z,6.63
2019-02-27T15:10:23.850Z,6.10
2019-02-27T15:12:55.179Z,6.87
2019-02-27T15:15:32.567Z,6.00
2019-02-27T15:18:00.976Z,5.90
2019-02-27T15:20:31.442Z,6.17
2019-02-27T15:22:59.911Z,6.60
2019-02-27T15:25:28.255Z,6.47
2019-02-27T15:27:58.670Z,6.50
2019-02-27T15:30:31.948Z,6.63
2019-02-27T15:33:03.704Z,5.47
2019-02-27T15:35:30.479Z,6.43
2019-02-27T15:37:58.939Z,5.97
2019-02-27T15:40:30.057Z,5.30
2019-02-27T15:42:59.037Z,6.40
2019-02-27T15:45:28.504Z,6.10
2019-02-27T15:47:56.943Z,6.40
2019-02-27T15:50:27.812Z,6.50
2019-02-27T15:52:56.112Z,5.60
2019-02-27T15:55:24.519Z,6.27
2019-02-27T15:57:54.152Z,5.70
2019-02-27T16:00:27.958Z,6.07
2019-02-27T16:02:56.422Z,6.20
2019-02-27T16:05:29.869Z,5.63
2019-02-27T16:07:55.071Z,6.30
2019-02-27T16:10:27.767Z,6.30
2019-02-27T16:12:59.699Z,6.53
2019-02-27T16:15:26.453Z,7.20
2019-02-27T16:17:54.792Z,7.10
2019-02-27T16:20:27.218Z,7.10
2019-02-27T16:22:55.545Z,7.67
2019-02-27T16:25:27.908Z,7.50
2019-02-27T16:27:56.316Z,7.40
2019-02-27T16:30:32.983Z,7.50
2019-02-27T16:33:01.482Z,7.83
2019-02-27T16:35:29.929Z,8.37
2019-02-27T16:37:58.492Z,8.17
2019-02-27T16:40:27.930Z,7.40
2019-02-27T16:42:56.654Z,7.60
2019-02-27T16:45:31.915Z,7.50
2019-02-27T16:47:58.416Z,8.50
2019-02-27T16:50:28.236Z,8.30
2019-02-27T16:52:56.800Z,7.93
2019-02-27T16:55:26.807Z,6.70
2019-02-27T16:57:57.649Z,8.30
2019-02-27T17:00:31.369Z,8.87
2019-02-27T17:03:00.104Z,10.63
2019-02-27T17:05:28.502Z,11.60
2019-02-27T17:08:00.410Z,11.93
2019-02-27T17:10:35.663Z,9.70
2019-02-27T17:13:04.149Z,9.47
2019-02-27T17:15:35.762Z,8.03
2019-02-27T17:18:02.521Z,9.53
2019-02-27T17:20:31.154Z,10.50
2019-02-27T17:22:59.585Z,10.10
2019-02-27T17:25:30.069Z,10.50
2019-02-27T17:27:58.162Z,10.43
2019-02-27T17:30:37.685Z,11.47
2019-02-27T17:33:05.411Z,11.33
2019-02-27T17:35:33.859Z,13.40
2019-02-27T17:38:03.173Z,14.30
2019-02-27T17:40:36.224Z,20.00
2019-02-27T17:43:01.892Z,22.33
2019-02-27T17:45:30.960Z,22.47
2019-02-27T17:47:59.503Z,19.37
2019-02-27T17:50:31.268Z,19.40
2019-02-27T17:52:58.070Z,17.20
2019-02-27T17:55:26.481Z,19.30
2019-02-27T17:57:57.867Z,22.83
2019-02-27T18:00:28.585Z,26.60
2019-02-27T18:02:56.963Z,27.33
2019-02-27T18:05:26.197Z,37.90
2019-02-27T18:07:56.414Z,23.93
2019-02-27T18:10:24.950Z,23.70
2019-02-27T18:12:53.368Z,21.37
2019-02-27T18:15:22.883Z,18.03
2019-02-27T18:17:51.699Z,17.17
2019-02-27T18:20:24.289Z,16.37
2019-02-27T18:22:50.567Z,17.40
2019-02-27T18:25:19.070Z,16.97
2019-02-27T18:27:48.000Z,16.23
2019-02-27T18:30:21.105Z,16.13
2019-02-27T18:32:49.858Z,16.90
2019-02-27T18:35:19.446Z,17.30
2019-02-27T18:37:53.101Z,18.13
2019-02-27T18:40:20.086Z,17.07
2019-02-27T18:42:48.589Z,16.40
2019-02-27T18:45:22.394Z,14.90
2019-02-27T18:47:50.797Z,15.13
2019-02-27T18:50:19.278Z,16.90
2019-02-27T18:52:47.708Z,16.87
2019-02-27T18:55:16.366Z,17.20
2019-02-27T18:57:47.167Z,18.27
2019-02-27T19:00:23.842Z,17.13
2019-02-27T19:02:54.582Z,15.87
2019-02-27T19:05:23.039Z,14.23
2019-02-27T19:07:54.841Z,15.50
2019-02-27T19:10:21.940Z,17.17
2019-02-27T19:12:50.418Z,15.90
2019-02-27T19:15:22.070Z,14.97
2019-02-27T19:17:50.488Z,15.37
2019-02-27T19:20:25.147Z,18.10
2019-02-27T19:22:53.910Z,17.27
2019-02-27T19:25:22.354Z,17.63
2019-02-27T19:27:50.982Z,16.63
2019-02-27T19:30:20.186Z,16.37
2019-02-27T19:32:49.156Z,15.73
2019-02-27T19:35:21.284Z,15.30
2019-02-27T19:37:49.501Z,15.67
2019-02-27T19:40:20.713Z,17.37
2019-02-27T19:43:03.153Z,18.40
2019-02-27T19:45:31.614Z,16.90
2019-02-27T19:48:01.011Z,17.77
2019-02-27T19:50:29.513Z,17.17
2019-02-27T19:53:03.271Z,16.50
2019-02-27T19:55:28.175Z,16.00
2019-02-27T19:57:56.569Z,14.20
2019-02-27T20:00:33.722Z,14.70
2019-02-27T20:03:01.085Z,13.27
2019-02-27T20:05:30.213Z,13.30
2019-02-27T20:07:58.598Z,13.60
2019-02-27T20:10:30.958Z,13.80
2019-02-27T20:12:57.984Z,12.20
2019-02-27T20:15:27.109Z,12.53
2019-02-27T20:17:55.417Z,11.90
2019-02-27T20:20:24.114Z,11.63
2019-02-27T20:22:53.487Z,11.83
2019-02-27T20:25:26.278Z,11.83
2019-02-27T20:27:57.976Z,16.40
2019-02-27T20:30:25.355Z,16.63
2019-02-27T20:32:54.120Z,17.93
2019-02-27T20:35:22.447Z,17.33
2019-02-27T20:37:50.980Z,15.43
2019-02-27T20:40:20.587Z,15.20
2019-02-27T20:42:50.741Z,16.60
2019-02-27T20:45:23.070Z,14.93
2019-02-27T20:47:57.701Z,13.17
2019-02-27T20:50:44.650Z,16.70
2019-02-27T20:53:14.723Z,15.70
2019-02-27T20:55:43.226Z,16.33
2019-02-27T20:58:16.161Z,18.70
2019-02-27T21:00:42.278Z,17.53
2019-02-27T21:03:10.744Z,15.43
2019-02-27T21:05:41.091Z,14.73
